CheckWX is a tool to help pilots better visualize weather data.  It is not intended as a substitute for an official pre-flight weather briefing.

05:50:59 UTC

CYQF METAR
Red Deer Regional Airport
Red Deer, Canada
Current

51 mins ago

CYQF 200500Z 20005KT 15SM OVC060 M08/M09 A2960 RMK SC8 SLP092
Observed
Feb-20 @ 05:00 UTC
Wind
  • 200° at 5 KTS
Visibility
24,140 meters
Flight Rules
VFR
Cloud Levels
  • Overcast at 6,000' AGL
Temperature
-8°C / 18°F
Dewpoint
-9°C / 16°F
Humidity
93%
Altimeter
29.6" Hg
Pressure
1009.2 hPa
Previous

2 hours ago

CYQF 200400Z 20005KT 15SM FEW020 OVC070 M07/M09 A2960 RMK SC1AC7 SLP093
Observed
Feb-20 @ 04:00 UTC
Wind
  • 200° at 5 KTS
Visibility
24,140 meters
Flight Rules
VFR
Cloud Levels
  • Few at 2,000' AGL
  • Overcast at 7,000' AGL
Temperature
-7°C / 19°F
Dewpoint
-9°C / 16°F
Humidity
86%
Altimeter
29.6" Hg
Pressure
1009.3 hPa
Previous

3 hours ago

CYQF 200300Z 20006KT 12SM FEW020 OVC070 M06/M09 A2960 RMK SC2AC6 SLP094
Observed
Feb-20 @ 03:00 UTC
Wind
  • 200° at 6 KTS
Visibility
19,312 meters
Flight Rules
VFR
Cloud Levels
  • Few at 2,000' AGL
  • Overcast at 7,000' AGL
Temperature
-6°C / 21°F
Dewpoint
-9°C / 16°F
Humidity
80%
Altimeter
29.6" Hg
Pressure
1009.4 hPa